sensor_id;sensor_type;location;lat;lon;timestamp;temperature;humidity
28863;DHT22;15994;51.796;13.006;2023-04-06T00:02:24;0.90;99.90
28863;DHT22;15994;51.796;13.006;2023-04-06T00:04:50;0.90;99.90
28863;DHT22;15994;51.796;13.006;2023-04-06T00:07:17;0.90;99.90
28863;DHT22;15994;51.796;13.006;2023-04-06T00:09:43;0.80;99.90
28863;DHT22;15994;51.796;13.006;2023-04-06T00:12:10;0.80;99.90
28863;DHT22;15994;51.796;13.006;2023-04-06T00:14:36;0.80;99.90
28863;DHT22;15994;51.796;13.006;2023-04-06T00:17:03;0.70;99.90
28863;DHT22;15994;51.796;13.006;2023-04-06T00:19:29;0.70;99.90
28863;DHT22;15994;51.796;13.006;2023-04-06T00:21:56;0.50;99.90
28863;DHT22;15994;51.796;13.006;2023-04-06T00:24:23;0.50;99.90
28863;DHT22;15994;51.796;13.006;2023-04-06T00:26:49;0.40;99.90
28863;DHT22;15994;51.796;13.006;2023-04-06T00:29:16;0.30;99.90
28863;DHT22;15994;51.796;13.006;2023-04-06T00:31:42;0.30;99.90
28863;DHT22;15994;51.796;13.006;2023-04-06T00:34:09;0.30;99.90
28863;DHT22;15994;51.796;13.006;2023-04-06T00:36:36;0.30;99.90
28863;DHT22;15994;51.796;13.006;2023-04-06T00:39:02;0.20;99.90
28863;DHT22;15994;51.796;13.006;2023-04-06T00:41:29;0.10;99.90
28863;DHT22;15994;51.796;13.006;2023-04-06T00:43:56;0.10;99.90
28863;DHT22;15994;51.796;13.006;2023-04-06T00:46:23;0.00;99.90
28863;DHT22;15994;51.796;13.006;2023-04-06T00:48:49;0.00;99.90
28863;DHT22;15994;51.796;13.006;2023-04-06T00:51:16;-0.10;99.90
28863;DHT22;15994;51.796;13.006;2023-04-06T00:53:42;-0.10;99.90
28863;DHT22;15994;51.796;13.006;2023-04-06T00:56:09;-0.20;99.90
28863;DHT22;15994;51.796;13.006;2023-04-06T00:58:36;-0.20;99.90
28863;DHT22;15994;51.796;13.006;2023-04-06T01:01:04;-0.30;99.90
28863;DHT22;15994;51.796;13.006;2023-04-06T01:03:30;-0.20;99.90
28863;DHT22;15994;51.796;13.006;2023-04-06T01:05:57;-0.20;99.90
28863;DHT22;15994;51.796;13.006;2023-04-06T01:08:24;-0.20;99.90
28863;DHT22;15994;51.796;13.006;2023-04-06T01:10:51;-0.30;99.90
28863;DHT22;15994;51.796;13.006;2023-04-06T01:13:17;-0.30;99.90
28863;DHT22;15994;51.796;13.006;2023-04-06T01:15:45;-0.20;99.90
28863;DHT22;15994;51.796;13.006;2023-04-06T01:18:12;-0.30;99.90
28863;DHT22;15994;51.796;13.006;2023-04-06T01:20:39;-0.50;99.90
28863;DHT22;15994;51.796;13.006;2023-04-06T01:23:05;-0.40;99.90
28863;DHT22;15994;51.796;13.006;2023-04-06T01:25:32;-0.50;99.90
28863;DHT22;15994;51.796;13.006;2023-04-06T01:27:58;-0.40;99.90
28863;DHT22;15994;51.796;13.006;2023-04-06T01:30:25;-0.40;99.90
28863;DHT22;15994;51.796;13.006;2023-04-06T01:32:52;-0.40;99.90
28863;DHT22;15994;51.796;13.006;2023-04-06T01:35:19;-0.40;99.90
28863;DHT22;15994;51.796;13.006;2023-04-06T01:37:46;-0.40;99.90
28863;DHT22;15994;51.796;13.006;2023-04-06T01:40:32;-0.40;99.90
28863;DHT22;15994;51.796;13.006;2023-04-06T01:42:59;-0.40;99.90
28863;DHT22;15994;51.796;13.006;2023-04-06T01:45:25;-0.40;99.90
28863;DHT22;15994;51.796;13.006;2023-04-06T01:47:52;-0.40;99.90
28863;DHT22;15994;51.796;13.006;2023-04-06T01:50:18;-0.50;99.90
28863;DHT22;15994;51.796;13.006;2023-04-06T01:52:45;-0.60;99.90
28863;DHT22;15994;51.796;13.006;2023-04-06T01:55:11;-0.60;99.90
28863;DHT22;15994;51.796;13.006;2023-04-06T01:57:38;-0.60;99.90
28863;DHT22;15994;51.796;13.006;2023-04-06T02:00:05;-0.60;99.90
28863;DHT22;15994;51.796;13.006;2023-04-06T02:02:32;-0.60;99.90
28863;DHT22;15994;51.796;13.006;2023-04-06T02:04:58;-0.60;99.90
28863;DHT22;15994;51.796;13.006;2023-04-06T02:07:25;-0.60;99.90
28863;DHT22;15994;51.796;13.006;2023-04-06T02:09:54;-0.60;99.90
28863;DHT22;15994;51.796;13.006;2023-04-06T02:12:21;-0.60;99.90
28863;DHT22;15994;51.796;13.006;2023-04-06T02:14:47;-0.80;99.90
28863;DHT22;15994;51.796;13.006;2023-04-06T02:17:14;-0.80;99.90
28863;DHT22;15994;51.796;13.006;2023-04-06T02:19:40;-0.70;99.90
28863;DHT22;15994;51.796;13.006;2023-04-06T02:22:07;-0.80;99.90
28863;DHT22;15994;51.796;13.006;2023-04-06T02:24:33;-0.80;99.90
28863;DHT22;15994;51.796;13.006;2023-04-06T02:27:00;-0.80;99.90
28863;DHT22;15994;51.796;13.006;2023-04-06T02:29:27;-0.80;99.90
28863;DHT22;15994;51.796;13.006;2023-04-06T02:31:53;-0.80;99.90
28863;DHT22;15994;51.796;13.006;2023-04-06T02:34:20;-0.80;99.90
28863;DHT22;15994;51.796;13.006;2023-04-06T02:36:47;-0.90;99.90
28863;DHT22;15994;51.796;13.006;2023-04-06T02:39:14;-0.90;99.90
28863;DHT22;15994;51.796;13.006;2023-04-06T02:41:40;-1.00;99.90
28863;DHT22;15994;51.796;13.006;2023-04-06T02:44:08;-1.00;99.90
28863;DHT22;15994;51.796;13.006;2023-04-06T02:46:35;-0.90;99.90
28863;DHT22;15994;51.796;13.006;2023-04-06T02:49:01;-0.90;99.90
28863;DHT22;15994;51.796;13.006;2023-04-06T02:51:28;-0.90;99.90
28863;DHT22;15994;51.796;13.006;2023-04-06T02:53:54;-0.90;99.90
28863;DHT22;15994;51.796;13.006;2023-04-06T02:56:21;-0.90;99.90
28863;DHT22;15994;51.796;13.006;2023-04-06T02:58:47;-0.90;99.90
28863;DHT22;15994;51.796;13.006;2023-04-06T03:01:14;-0.90;99.90
28863;DHT22;15994;51.796;13.006;2023-04-06T03:03:41;-0.90;99.90
28863;DHT22;15994;51.796;13.006;2023-04-06T03:06:07;-0.90;99.90
28863;DHT22;15994;51.796;13.006;2023-04-06T03:08:34;-0.90;99.90
28863;DHT22;15994;51.796;13.006;2023-04-06T03:11:00;-1.00;99.90
28863;DHT22;15994;51.796;13.006;2023-04-06T03:13:27;-1.00;99.90
28863;DHT22;15994;51.796;13.006;2023-04-06T03:15:54;-1.00;99.90
28863;DHT22;15994;51.796;13.006;2023-04-06T03:18:22;-1.00;99.90
28863;DHT22;15994;51.796;13.006;2023-04-06T03:20:49;-1.00;99.90
28863;DHT22;15994;51.796;13.006;2023-04-06T03:23:16;-1.00;99.90
28863;DHT22;15994;51.796;13.006;2023-04-06T03:25:42;-1.10;99.90
28863;DHT22;15994;51.796;13.006;2023-04-06T03:28:09;-1.00;99.90
28863;DHT22;15994;51.796;13.006;2023-04-06T03:30:35;-1.10;99.90
28863;DHT22;15994;51.796;13.006;2023-04-06T03:33:02;-1.10;99.90
28863;DHT22;15994;51.796;13.006;2023-04-06T03:35:28;-1.20;99.90
28863;DHT22;15994;51.796;13.006;2023-04-06T03:37:55;-1.20;99.90
28863;DHT22;15994;51.796;13.006;2023-04-06T03:40:21;-1.20;99.90
28863;DHT22;15994;51.796;13.006;2023-04-06T03:42:48;-1.20;99.90
28863;DHT22;15994;51.796;13.006;2023-04-06T03:45:15;-1.30;99.90
28863;DHT22;15994;51.796;13.006;2023-04-06T03:47:41;-1.30;99.90
28863;DHT22;15994;51.796;13.006;2023-04-06T03:50:08;-1.40;99.90
28863;DHT22;15994;51.796;13.006;2023-04-06T03:52:36;-1.40;99.90
28863;DHT22;15994;51.796;13.006;2023-04-06T03:55:02;-1.40;99.90
28863;DHT22;15994;51.796;13.006;2023-04-06T03:57:29;-1.40;99.90
28863;DHT22;15994;51.796;13.006;2023-04-06T03:59:56;-1.40;99.90
28863;DHT22;15994;51.796;13.006;2023-04-06T04:02:22;-1.40;99.90
28863;DHT22;15994;51.796;13.006;2023-04-06T04:04:49;-1.50;99.90
28863;DHT22;15994;51.796;13.006;2023-04-06T04:07:15;-1.40;99.90
28863;DHT22;15994;51.796;13.006;2023-04-06T04:09:42;-1.50;99.90
28863;DHT22;15994;51.796;13.006;2023-04-06T04:12:09;-1.50;99.90
28863;DHT22;15994;51.796;13.006;2023-04-06T04:14:35;-1.50;99.90
28863;DHT22;15994;51.796;13.006;2023-04-06T04:17:02;-1.50;99.90
28863;DHT22;15994;51.796;13.006;2023-04-06T04:19:28;-1.50;99.90
28863;DHT22;15994;51.796;13.006;2023-04-06T04:21:55;-1.50;99.90
28863;DHT22;15994;51.796;13.006;2023-04-06T04:24:21;-1.50;99.90
28863;DHT22;15994;51.796;13.006;2023-04-06T04:26:48;-1.50;99.90
28863;DHT22;15994;51.796;13.006;2023-04-06T04:29:15;-1.50;99.90
28863;DHT22;15994;51.796;13.006;2023-04-06T04:31:42;-1.40;99.90
28863;DHT22;15994;51.796;13.006;2023-04-06T04:34:08;-1.40;99.90
28863;DHT22;15994;51.796;13.006;2023-04-06T04:36:34;-1.40;99.90
28863;DHT22;15994;51.796;13.006;2023-04-06T04:39:01;-1.40;99.90
28863;DHT22;15994;51.796;13.006;2023-04-06T04:41:28;-1.50;99.90
28863;DHT22;15994;51.796;13.006;2023-04-06T04:43:54;-1.50;99.90
28863;DHT22;15994;51.796;13.006;2023-04-06T04:46:21;-1.50;99.90
28863;DHT22;15994;51.796;13.006;2023-04-06T04:48:47;-1.50;99.90
28863;DHT22;15994;51.796;13.006;2023-04-06T04:51:15;-1.50;99.90
28863;DHT22;15994;51.796;13.006;2023-04-06T04:53:42;-1.50;99.90
28863;DHT22;15994;51.796;13.006;2023-04-06T04:56:08;-1.40;99.90
28863;DHT22;15994;51.796;13.006;2023-04-06T04:58:35;-1.40;99.90
28863;DHT22;15994;51.796;13.006;2023-04-06T05:01:01;-1.40;99.90
28863;DHT22;15994;51.796;13.006;2023-04-06T05:03:28;-1.30;99.90
28863;DHT22;15994;51.796;13.006;2023-04-06T05:05:54;-1.30;99.90
28863;DHT22;15994;51.796;13.006;2023-04-06T05:08:21;-1.30;99.90
28863;DHT22;15994;51.796;13.006;2023-04-06T05:10:47;-1.20;99.90
28863;DHT22;15994;51.796;13.006;2023-04-06T05:13:14;-1.20;99.90
28863;DHT22;15994;51.796;13.006;2023-04-06T05:15:41;-1.20;99.90
28863;DHT22;15994;51.796;13.006;2023-04-06T05:18:08;-1.20;99.90
28863;DHT22;15994;51.796;13.006;2023-04-06T05:20:35;-1.10;99.90
28863;DHT22;15994;51.796;13.006;2023-04-06T05:23:02;-1.10;99.90
28863;DHT22;15994;51.796;13.006;2023-04-06T05:25:28;-1.00;99.90
28863;DHT22;15994;51.796;13.006;2023-04-06T05:27:55;-1.00;99.90
28863;DHT22;15994;51.796;13.006;2023-04-06T05:30:21;-0.90;99.90
28863;DHT22;15994;51.796;13.006;2023-04-06T05:32:48;-0.80;99.90
28863;DHT22;15994;51.796;13.006;2023-04-06T05:35:15;-0.80;99.90
28863;DHT22;15994;51.796;13.006;2023-04-06T05:37:42;-0.80;99.90
28863;DHT22;15994;51.796;13.006;2023-04-06T05:40:09;-0.70;99.90
28863;DHT22;15994;51.796;13.006;2023-04-06T05:42:39;-0.60;99.90
28863;DHT22;15994;51.796;13.006;2023-04-06T05:45:07;-0.50;99.90
28863;DHT22;15994;51.796;13.006;2023-04-06T05:47:33;-0.50;99.90
28863;DHT22;15994;51.796;13.006;2023-04-06T05:50:00;-0.40;99.90
28863;DHT22;15994;51.796;13.006;2023-04-06T05:52:27;-0.30;99.90
28863;DHT22;15994;51.796;13.006;2023-04-06T05:54:53;-0.30;99.90
28863;DHT22;15994;51.796;13.006;2023-04-06T05:57:20;-0.20;99.90
28863;DHT22;15994;51.796;13.006;2023-04-06T05:59:47;-0.20;99.90
28863;DHT22;15994;51.796;13.006;2023-04-06T06:02:13;-0.10;99.90
28863;DHT22;15994;51.796;13.006;2023-04-06T06:04:40;-0.10;99.90
28863;DHT22;15994;51.796;13.006;2023-04-06T06:07:06;0.00;99.90
28863;DHT22;15994;51.796;13.006;2023-04-06T06:09:33;0.00;99.90
28863;DHT22;15994;51.796;13.006;2023-04-06T06:12:00;0.10;99.90
28863;DHT22;15994;51.796;13.006;2023-04-06T06:14:26;0.10;99.90
28863;DHT22;15994;51.796;13.006;2023-04-06T06:16:54;0.20;99.90
28863;DHT22;15994;51.796;13.006;2023-04-06T06:19:20;0.20;99.90
28863;DHT22;15994;51.796;13.006;2023-04-06T06:21:47;0.30;99.90
28863;DHT22;15994;51.796;13.006;2023-04-06T06:24:13;0.40;99.90
28863;DHT22;15994;51.796;13.006;2023-04-06T06:26:40;0.40;99.90
28863;DHT22;15994;51.796;13.006;2023-04-06T06:29:08;0.50;99.90
28863;DHT22;15994;51.796;13.006;2023-04-06T06:31:35;0.60;99.90
28863;DHT22;15994;51.796;13.006;2023-04-06T06:34:01;0.60;99.90
28863;DHT22;15994;51.796;13.006;2023-04-06T06:36:29;0.70;99.90
28863;DHT22;15994;51.796;13.006;2023-04-06T06:38:55;0.80;99.90
28863;DHT22;15994;51.796;13.006;2023-04-06T06:41:22;0.90;99.90
28863;DHT22;15994;51.796;13.006;2023-04-06T06:43:48;1.00;99.90
28863;DHT22;15994;51.796;13.006;2023-04-06T06:46:15;1.10;99.90
28863;DHT22;15994;51.796;13.006;2023-04-06T06:48:41;1.20;99.90
28863;DHT22;15994;51.796;13.006;2023-04-06T06:51:08;1.30;99.90
28863;DHT22;15994;51.796;13.006;2023-04-06T06:53:36;1.50;99.90
28863;DHT22;15994;51.796;13.006;2023-04-06T06:56:03;1.50;99.90
28863;DHT22;15994;51.796;13.006;2023-04-06T06:58:30;1.60;99.90
28863;DHT22;15994;51.796;13.006;2023-04-06T07:00:57;1.70;99.90
28863;DHT22;15994;51.796;13.006;2023-04-06T07:03:24;1.90;99.90
28863;DHT22;15994;51.796;13.006;2023-04-06T07:05:51;2.00;99.90
28863;DHT22;15994;51.796;13.006;2023-04-06T07:08:23;2.10;99.90
28863;DHT22;15994;51.796;13.006;2023-04-06T07:10:51;2.20;99.90
28863;DHT22;15994;51.796;13.006;2023-04-06T07:13:19;2.30;99.90
28863;DHT22;15994;51.796;13.006;2023-04-06T07:15:48;2.40;99.90
28863;DHT22;15994;51.796;13.006;2023-04-06T07:18:16;2.50;99.90
28863;DHT22;15994;51.796;13.006;2023-04-06T07:20:42;2.70;99.90
28863;DHT22;15994;51.796;13.006;2023-04-06T07:23:09;2.70;99.90
28863;DHT22;15994;51.796;13.006;2023-04-06T07:25:35;2.90;99.90
28863;DHT22;15994;51.796;13.006;2023-04-06T07:28:03;3.00;99.90
28863;DHT22;15994;51.796;13.006;2023-04-06T07:30:30;3.20;99.90
28863;DHT22;15994;51.796;13.006;2023-04-06T07:32:57;3.30;99.90
28863;DHT22;15994;51.796;13.006;2023-04-06T07:35:24;3.30;99.90
28863;DHT22;15994;51.796;13.006;2023-04-06T07:37:52;3.40;99.90
28863;DHT22;15994;51.796;13.006;2023-04-06T07:40:18;3.60;99.90
28863;DHT22;15994;51.796;13.006;2023-04-06T07:42:45;3.70;99.90
28863;DHT22;15994;51.796;13.006;2023-04-06T07:45:12;4.00;99.90
28863;DHT22;15994;51.796;13.006;2023-04-06T07:47:40;4.10;99.90
28863;DHT22;15994;51.796;13.006;2023-04-06T07:50:07;4.40;99.90
28863;DHT22;15994;51.796;13.006;2023-04-06T07:52:34;4.50;99.90
28863;DHT22;15994;51.796;13.006;2023-04-06T07:55:00;4.70;99.90
28863;DHT22;15994;51.796;13.006;2023-04-06T07:57:27;4.80;99.90
28863;DHT22;15994;51.796;13.006;2023-04-06T07:59:53;4.90;99.90
28863;DHT22;15994;51.796;13.006;2023-04-06T08:02:20;5.00;99.90
28863;DHT22;15994;51.796;13.006;2023-04-06T08:04:47;5.20;99.90
28863;DHT22;15994;51.796;13.006;2023-04-06T08:07:14;5.40;99.90
28863;DHT22;15994;51.796;13.006;2023-04-06T08:09:40;5.50;99.90
28863;DHT22;15994;51.796;13.006;2023-04-06T08:12:07;5.60;99.90
28863;DHT22;15994;51.796;13.006;2023-04-06T08:14:34;5.90;99.90
28863;DHT22;15994;51.796;13.006;2023-04-06T08:17:01;6.00;99.90
28863;DHT22;15994;51.796;13.006;2023-04-06T08:19:27;6.00;99.90
28863;DHT22;15994;51.796;13.006;2023-04-06T08:21:54;6.10;99.90
28863;DHT22;15994;51.796;13.006;2023-04-06T08:24:20;6.30;99.90
28863;DHT22;15994;51.796;13.006;2023-04-06T08:26:47;6.50;99.90
28863;DHT22;15994;51.796;13.006;2023-04-06T08:41:30;7.00;99.90
28863;DHT22;15994;51.796;13.006;2023-04-06T08:44:01;7.00;99.90
28863;DHT22;15994;51.796;13.006;2023-04-06T08:46:29;7.10;99.70
28863;DHT22;15994;51.796;13.006;2023-04-06T08:49:02;7.00;99.70
28863;DHT22;15994;51.796;13.006;2023-04-06T08:51:31;7.30;99.90
28863;DHT22;15994;51.796;13.006;2023-04-06T08:53:59;7.30;98.40
28863;DHT22;15994;51.796;13.006;2023-04-06T08:56:27;7.50;98.00
28863;DHT22;15994;51.796;13.006;2023-04-06T08:58:55;7.50;97.80
28863;DHT22;15994;51.796;13.006;2023-04-06T09:01:26;7.70;98.60
28863;DHT22;15994;51.796;13.006;2023-04-06T09:03:57;7.70;97.40
28863;DHT22;15994;51.796;13.006;2023-04-06T09:06:25;7.80;97.40
28863;DHT22;15994;51.796;13.006;2023-04-06T09:08:52;7.90;97.30
28863;DHT22;15994;51.796;13.006;2023-04-06T09:11:20;7.80;97.90
28863;DHT22;15994;51.796;13.006;2023-04-06T09:13:48;7.70;97.40
28863;DHT22;15994;51.796;13.006;2023-04-06T09:16:15;7.90;97.30
28863;DHT22;15994;51.796;13.006;2023-04-06T09:18:42;7.90;96.70
28863;DHT22;15994;51.796;13.006;2023-04-06T09:21:09;8.00;97.20
28863;DHT22;15994;51.796;13.006;2023-04-06T09:23:37;8.00;96.40
28863;DHT22;15994;51.796;13.006;2023-04-06T09:26:12;8.10;96.40
28863;DHT22;15994;51.796;13.006;2023-04-06T09:28:56;8.20;95.60
28863;DHT22;15994;51.796;13.006;2023-04-06T09:31:25;8.30;95.60
28863;DHT22;15994;51.796;13.006;2023-04-06T09:33:53;8.20;94.70
28863;DHT22;15994;51.796;13.006;2023-04-06T09:36:28;8.30;95.60
28863;DHT22;15994;51.796;13.006;2023-04-06T09:38:57;8.40;96.30
28863;DHT22;15994;51.796;13.006;2023-04-06T09:41:35;8.60;95.90
28863;DHT22;15994;51.796;13.006;2023-04-06T09:44:09;8.80;95.30
28863;DHT22;15994;51.796;13.006;2023-04-06T09:49:05;8.70;95.00
28863;DHT22;15994;51.796;13.006;2023-04-06T09:51:39;8.80;95.30
28863;DHT22;15994;51.796;13.006;2023-04-06T09:54:07;9.00;95.20
28863;DHT22;15994;51.796;13.006;2023-04-06T09:56:47;9.00;95.00
28863;DHT22;15994;51.796;13.006;2023-04-06T09:59:22;8.80;94.50
28863;DHT22;15994;51.796;13.006;2023-04-06T10:01:53;8.60;95.50
28863;DHT22;15994;51.796;13.006;2023-04-06T10:04:27;8.70;95.20
28863;DHT22;15994;51.796;13.006;2023-04-06T10:06:58;8.80;95.50
28863;DHT22;15994;51.796;13.006;2023-04-06T10:09:28;9.10;94.20
28863;DHT22;15994;51.796;13.006;2023-04-06T10:12:02;9.40;94.10
28863;DHT22;15994;51.796;13.006;2023-04-06T10:14:31;9.30;94.70
28863;DHT22;15994;51.796;13.006;2023-04-06T10:16:58;9.20;92.60
28863;DHT22;15994;51.796;13.006;2023-04-06T10:19:28;9.30;93.40
28863;DHT22;15994;51.796;13.006;2023-04-06T10:21:57;9.40;94.50
28863;DHT22;15994;51.796;13.006;2023-04-06T10:24:24;9.60;93.70
28863;DHT22;15994;51.796;13.006;2023-04-06T10:27:03;9.60;93.70
28863;DHT22;15994;51.796;13.006;2023-04-06T10:29:46;9.60;93.10
28863;DHT22;15994;51.796;13.006;2023-04-06T10:32:14;9.70;93.10
28863;DHT22;15994;51.796;13.006;2023-04-06T10:34:40;9.70;93.70
28863;DHT22;15994;51.796;13.006;2023-04-06T10:37:14;9.90;93.20
28863;DHT22;15994;51.796;13.006;2023-04-06T10:39:54;10.10;94.00
28863;DHT22;15994;51.796;13.006;2023-04-06T10:42:37;10.40;93.80
28863;DHT22;15994;51.796;13.006;2023-04-06T10:45:07;10.60;92.60
28863;DHT22;15994;51.796;13.006;2023-04-06T10:47:44;10.80;92.40
28863;DHT22;15994;51.796;13.006;2023-04-06T10:50:14;11.00;92.70
28863;DHT22;15994;51.796;13.006;2023-04-06T10:52:41;11.30;92.60
28863;DHT22;15994;51.796;13.006;2023-04-06T10:55:08;11.40;91.70
28863;DHT22;15994;51.796;13.006;2023-04-06T10:57:36;11.40;91.10
28863;DHT22;15994;51.796;13.006;2023-04-06T11:00:04;11.30;91.80
28863;DHT22;15994;51.796;13.006;2023-04-06T11:02:31;11.50;91.30
28863;DHT22;15994;51.796;13.006;2023-04-06T11:04:58;11.50;90.20
28863;DHT22;15994;51.796;13.006;2023-04-06T11:07:26;11.60;91.10
28863;DHT22;15994;51.796;13.006;2023-04-06T11:09:56;11.70;88.00
28863;DHT22;15994;51.796;13.006;2023-04-06T11:12:27;11.70;86.10
28863;DHT22;15994;51.796;13.006;2023-04-06T11:14:57;11.80;88.20
28863;DHT22;15994;51.796;13.006;2023-04-06T11:17:30;11.90;88.50
28863;DHT22;15994;51.796;13.006;2023-04-06T11:19:58;12.10;91.00
28863;DHT22;15994;51.796;13.006;2023-04-06T11:22:25;12.30;87.80
28863;DHT22;15994;51.796;13.006;2023-04-06T11:24:53;12.00;86.10
28863;DHT22;15994;51.796;13.006;2023-04-06T11:27:20;11.80;87.20
28863;DHT22;15994;51.796;13.006;2023-04-06T11:29:48;11.50;87.80
28863;DHT22;15994;51.796;13.006;2023-04-06T11:32:22;11.30;87.70
28863;DHT22;15994;51.796;13.006;2023-04-06T11:34:49;11.10;86.90
28863;DHT22;15994;51.796;13.006;2023-04-06T11:37:16;11.10;86.60
28863;DHT22;15994;51.796;13.006;2023-04-06T11:39:51;11.20;88.50
28863;DHT22;15994;51.796;13.006;2023-04-06T11:42:22;11.20;87.60
28863;DHT22;15994;51.796;13.006;2023-04-06T11:44:54;11.40;86.80
28863;DHT22;15994;51.796;13.006;2023-04-06T11:47:30;11.50;85.00
28863;DHT22;15994;51.796;13.006;2023-04-06T11:50:07;11.50;84.70
28863;DHT22;15994;51.796;13.006;2023-04-06T11:52:33;11.70;85.30
28863;DHT22;15994;51.796;13.006;2023-04-06T11:55:14;11.70;84.80
28863;DHT22;15994;51.796;13.006;2023-04-06T11:57:42;11.90;88.30
28863;DHT22;15994;51.796;13.006;2023-04-06T12:00:09;12.20;89.30
28863;DHT22;15994;51.796;13.006;2023-04-06T12:02:37;12.10;88.00
28863;DHT22;15994;51.796;13.006;2023-04-06T12:05:04;12.20;84.80
28863;DHT22;15994;51.796;13.006;2023-04-06T12:07:32;12.10;83.50
28863;DHT22;15994;51.796;13.006;2023-04-06T12:10:00;12.10;87.60
28863;DHT22;15994;51.796;13.006;2023-04-06T12:12:27;12.10;84.50
28863;DHT22;15994;51.796;13.006;2023-04-06T12:14:55;12.20;86.60
28863;DHT22;15994;51.796;13.006;2023-04-06T12:17:22;12.20;85.90
28863;DHT22;15994;51.796;13.006;2023-04-06T12:19:48;12.10;86.50
28863;DHT22;15994;51.796;13.006;2023-04-06T12:22:15;12.00;83.30
28863;DHT22;15994;51.796;13.006;2023-04-06T12:24:42;11.70;82.30
28863;DHT22;15994;51.796;13.006;2023-04-06T12:27:09;11.80;86.40
28863;DHT22;15994;51.796;13.006;2023-04-06T12:29:37;11.90;86.50
28863;DHT22;15994;51.796;13.006;2023-04-06T12:32:04;12.00;88.70
28863;DHT22;15994;51.796;13.006;2023-04-06T12:34:31;12.10;87.30
28863;DHT22;15994;51.796;13.006;2023-04-06T12:36:58;12.20;82.20
28863;DHT22;15994;51.796;13.006;2023-04-06T12:39:26;12.20;88.50
28863;DHT22;15994;51.796;13.006;2023-04-06T12:41:53;12.40;88.50
28863;DHT22;15994;51.796;13.006;2023-04-06T12:44:20;12.50;88.60
28863;DHT22;15994;51.796;13.006;2023-04-06T12:46:47;12.50;86.50
28863;DHT22;15994;51.796;13.006;2023-04-06T12:49:13;12.60;88.70
28863;DHT22;15994;51.796;13.006;2023-04-06T12:51:42;12.70;86.60
28863;DHT22;15994;51.796;13.006;2023-04-06T12:54:08;12.70;86.10
28863;DHT22;15994;51.796;13.006;2023-04-06T12:56:36;12.60;86.10
28863;DHT22;15994;51.796;13.006;2023-04-06T12:59:02;12.50;88.60
28863;DHT22;15994;51.796;13.006;2023-04-06T13:01:30;12.60;88.70
28863;DHT22;15994;51.796;13.006;2023-04-06T13:03:57;12.40;81.90
28863;DHT22;15994;51.796;13.006;2023-04-06T13:06:24;12.10;83.10
28863;DHT22;15994;51.796;13.006;2023-04-06T13:08:52;12.30;87.50
28863;DHT22;15994;51.796;13.006;2023-04-06T13:11:19;12.40;86.20
28863;DHT22;15994;51.796;13.006;2023-04-06T13:13:48;12.60;85.80
28863;DHT22;15994;51.796;13.006;2023-04-06T13:16:14;12.60;85.40
28863;DHT22;15994;51.796;13.006;2023-04-06T13:18:41;12.50;85.30
28863;DHT22;15994;51.796;13.006;2023-04-06T13:21:08;12.50;82.80
28863;DHT22;15994;51.796;13.006;2023-04-06T13:23:35;12.50;86.20
28863;DHT22;15994;51.796;13.006;2023-04-06T13:26:06;12.40;85.40
28863;DHT22;15994;51.796;13.006;2023-04-06T13:28:34;12.50;86.40
28863;DHT22;15994;51.796;13.006;2023-04-06T13:31:02;12.40;83.10
28863;DHT22;15994;51.796;13.006;2023-04-06T13:33:30;12.20;84.00
28863;DHT22;15994;51.796;13.006;2023-04-06T13:35:57;12.10;83.90
28863;DHT22;15994;51.796;13.006;2023-04-06T13:38:24;12.20;88.20
28863;DHT22;15994;51.796;13.006;2023-04-06T13:40:51;12.20;86.20
28863;DHT22;15994;51.796;13.006;2023-04-06T13:43:18;12.20;86.50
28863;DHT22;15994;51.796;13.006;2023-04-06T13:45:52;12.10;84.50
28863;DHT22;15994;51.796;13.006;2023-04-06T13:48:20;12.00;80.90
28863;DHT22;15994;51.796;13.006;2023-04-06T13:50:47;11.80;82.20
28863;DHT22;15994;51.796;13.006;2023-04-06T13:53:13;12.00;85.40
28863;DHT22;15994;51.796;13.006;2023-04-06T13:55:40;11.80;82.40
28863;DHT22;15994;51.796;13.006;2023-04-06T13:58:07;11.90;87.00
28863;DHT22;15994;51.796;13.006;2023-04-06T14:00:34;12.00;87.40
28863;DHT22;15994;51.796;13.006;2023-04-06T14:03:01;12.10;87.80
28863;DHT22;15994;51.796;13.006;2023-04-06T14:05:31;12.10;86.00
28863;DHT22;15994;51.796;13.006;2023-04-06T14:07:58;12.00;86.30
28863;DHT22;15994;51.796;13.006;2023-04-06T14:10:24;11.80;81.90
28863;DHT22;15994;51.796;13.006;2023-04-06T14:12:52;11.50;86.00
28863;DHT22;15994;51.796;13.006;2023-04-06T14:15:19;11.60;84.80
28863;DHT22;15994;51.796;13.006;2023-04-06T14:17:47;11.50;83.50
28863;DHT22;15994;51.796;13.006;2023-04-06T14:20:13;11.50;87.50
28863;DHT22;15994;51.796;13.006;2023-04-06T14:22:41;11.50;85.90
28863;DHT22;15994;51.796;13.006;2023-04-06T14:25:08;11.60;88.20
28863;DHT22;15994;51.796;13.006;2023-04-06T14:27:35;11.60;86.30
28863;DHT22;15994;51.796;13.006;2023-04-06T14:30:01;11.70;86.40
28863;DHT22;15994;51.796;13.006;2023-04-06T14:32:28;11.80;86.40
28863;DHT22;15994;51.796;13.006;2023-04-06T14:34:55;11.90;88.00
28863;DHT22;15994;51.796;13.006;2023-04-06T14:37:22;12.00;87.20
28863;DHT22;15994;51.796;13.006;2023-04-06T14:39:48;12.00;88.50
28863;DHT22;15994;51.796;13.006;2023-04-06T14:42:15;11.90;81.70
28863;DHT22;15994;51.796;13.006;2023-04-06T14:44:41;11.70;84.60
28863;DHT22;15994;51.796;13.006;2023-04-06T14:47:10;11.60;86.00
28863;DHT22;15994;51.796;13.006;2023-04-06T14:49:40;11.60;86.10
28863;DHT22;15994;51.796;13.006;2023-04-06T14:52:07;11.60;85.30
28863;DHT22;15994;51.796;13.006;2023-04-06T14:54:33;11.50;84.30
28863;DHT22;15994;51.796;13.006;2023-04-06T14:57:00;11.20;83.90
28863;DHT22;15994;51.796;13.006;2023-04-06T14:59:27;11.30;86.60
28863;DHT22;15994;51.796;13.006;2023-04-06T15:01:53;11.10;84.30
28863;DHT22;15994;51.796;13.006;2023-04-06T15:04:20;11.00;84.10
28863;DHT22;15994;51.796;13.006;2023-04-06T15:06:47;11.10;85.70
28863;DHT22;15994;51.796;13.006;2023-04-06T15:09:13;11.20;89.20
28863;DHT22;15994;51.796;13.006;2023-04-06T15:11:40;11.30;87.70
28863;DHT22;15994;51.796;13.006;2023-04-06T15:14:06;11.30;87.40
28863;DHT22;15994;51.796;13.006;2023-04-06T15:16:33;11.20;86.40
28863;DHT22;15994;51.796;13.006;2023-04-06T15:19:00;11.30;88.00
28863;DHT22;15994;51.796;13.006;2023-04-06T15:21:26;11.30;88.70
28863;DHT22;15994;51.796;13.006;2023-04-06T15:23:53;11.30;86.60
28863;DHT22;15994;51.796;13.006;2023-04-06T15:26:20;11.40;84.30
28863;DHT22;15994;51.796;13.006;2023-04-06T15:28:47;11.30;85.50
28863;DHT22;15994;51.796;13.006;2023-04-06T15:31:18;11.30;86.90
28863;DHT22;15994;51.796;13.006;2023-04-06T15:33:45;11.40;87.60
28863;DHT22;15994;51.796;13.006;2023-04-06T15:36:26;11.30;84.50
28863;DHT22;15994;51.796;13.006;2023-04-06T15:38:54;11.40;86.80